sensor_id;sensor_type;location;lat;lon;timestamp;temperature;humidity
6843;DHT22;3460;52.028;8.916;2023-06-14T00:02:24;17.20;99.90
6843;DHT22;3460;52.028;8.916;2023-06-14T00:04:51;17.10;99.90
6843;DHT22;3460;52.028;8.916;2023-06-14T00:07:27;17.10;99.90
6843;DHT22;3460;52.028;8.916;2023-06-14T00:09:59;17.10;99.90
6843;DHT22;3460;52.028;8.916;2023-06-14T00:12:26;17.10;99.90
6843;DHT22;3460;52.028;8.916;2023-06-14T00:14:53;17.10;99.90
6843;DHT22;3460;52.028;8.916;2023-06-14T00:17:20;17.10;99.90
6843;DHT22;3460;52.028;8.916;2023-06-14T00:19:48;17.00;99.90
6843;DHT22;3460;52.028;8.916;2023-06-14T00:22:14;17.00;99.90
6843;DHT22;3460;52.028;8.916;2023-06-14T00:24:43;17.00;99.90
6843;DHT22;3460;52.028;8.916;2023-06-14T00:27:10;16.90;99.90
6843;DHT22;3460;52.028;8.916;2023-06-14T00:29:36;16.80;99.90
6843;DHT22;3460;52.028;8.916;2023-06-14T00:32:04;16.80;99.90
6843;DHT22;3460;52.028;8.916;2023-06-14T00:34:31;16.80;99.90
6843;DHT22;3460;52.028;8.916;2023-06-14T00:36:58;16.80;99.90
6843;DHT22;3460;52.028;8.916;2023-06-14T00:39:24;16.80;99.90
6843;DHT22;3460;52.028;8.916;2023-06-14T00:41:53;16.70;99.90
6843;DHT22;3460;52.028;8.916;2023-06-14T00:44:20;16.70;99.90
6843;DHT22;3460;52.028;8.916;2023-06-14T00:46:47;16.70;99.90
6843;DHT22;3460;52.028;8.916;2023-06-14T00:49:14;16.70;99.90
6843;DHT22;3460;52.028;8.916;2023-06-14T00:51:42;16.60;99.90
6843;DHT22;3460;52.028;8.916;2023-06-14T00:54:09;16.70;99.90
6843;DHT22;3460;52.028;8.916;2023-06-14T00:56:37;16.60;99.90
6843;DHT22;3460;52.028;8.916;2023-06-14T00:59:05;16.60;99.90
6843;DHT22;3460;52.028;8.916;2023-06-14T01:01:32;16.60;99.90
6843;DHT22;3460;52.028;8.916;2023-06-14T01:03:59;16.50;99.90
6843;DHT22;3460;52.028;8.916;2023-06-14T01:06:33;16.50;99.90
6843;DHT22;3460;52.028;8.916;2023-06-14T01:09:12;16.40;99.90
6843;DHT22;3460;52.028;8.916;2023-06-14T01:11:48;16.40;99.90
6843;DHT22;3460;52.028;8.916;2023-06-14T01:14:18;16.40;99.90
6843;DHT22;3460;52.028;8.916;2023-06-14T01:16:47;16.30;99.90
6843;DHT22;3460;52.028;8.916;2023-06-14T01:19:18;16.20;99.90
6843;DHT22;3460;52.028;8.916;2023-06-14T01:21:48;16.20;99.90
6843;DHT22;3460;52.028;8.916;2023-06-14T01:24:18;16.20;99.90
6843;DHT22;3460;52.028;8.916;2023-06-14T01:26:49;16.10;99.90
6843;DHT22;3460;52.028;8.916;2023-06-14T01:29:22;16.20;99.90
6843;DHT22;3460;52.028;8.916;2023-06-14T01:31:50;16.20;99.90
6843;DHT22;3460;52.028;8.916;2023-06-14T01:34:17;16.20;99.90
6843;DHT22;3460;52.028;8.916;2023-06-14T01:36:45;16.10;99.90
6843;DHT22;3460;52.028;8.916;2023-06-14T01:39:14;16.10;99.90
6843;DHT22;3460;52.028;8.916;2023-06-14T01:41:44;16.10;99.90
6843;DHT22;3460;52.028;8.916;2023-06-14T01:44:16;16.00;99.90
6843;DHT22;3460;52.028;8.916;2023-06-14T01:46:44;15.90;99.90
6843;DHT22;3460;52.028;8.916;2023-06-14T01:49:11;15.90;99.90
6843;DHT22;3460;52.028;8.916;2023-06-14T01:51:38;15.80;99.90
6843;DHT22;3460;52.028;8.916;2023-06-14T01:54:05;15.80;99.90
6843;DHT22;3460;52.028;8.916;2023-06-14T01:56:32;15.80;99.90
6843;DHT22;3460;52.028;8.916;2023-06-14T01:59:03;15.70;99.90
6843;DHT22;3460;52.028;8.916;2023-06-14T02:01:30;15.70;99.90
6843;DHT22;3460;52.028;8.916;2023-06-14T02:04:00;15.70;99.90
6843;DHT22;3460;52.028;8.916;2023-06-14T02:06:27;15.60;99.90
6843;DHT22;3460;52.028;8.916;2023-06-14T02:09:00;15.50;99.90
6843;DHT22;3460;52.028;8.916;2023-06-14T02:11:27;15.40;99.90
6843;DHT22;3460;52.028;8.916;2023-06-14T02:13:55;15.30;99.90
6843;DHT22;3460;52.028;8.916;2023-06-14T02:16:23;15.30;99.90
6843;DHT22;3460;52.028;8.916;2023-06-14T02:18:50;15.20;99.90
6843;DHT22;3460;52.028;8.916;2023-06-14T02:21:17;15.20;99.90
6843;DHT22;3460;52.028;8.916;2023-06-14T02:23:44;15.20;99.90
6843;DHT22;3460;52.028;8.916;2023-06-14T02:26:12;15.10;99.90
6843;DHT22;3460;52.028;8.916;2023-06-14T02:28:42;15.20;99.90
6843;DHT22;3460;52.028;8.916;2023-06-14T02:31:09;15.20;99.90
6843;DHT22;3460;52.028;8.916;2023-06-14T02:33:37;15.20;99.90
6843;DHT22;3460;52.028;8.916;2023-06-14T02:36:07;15.20;99.90
6843;DHT22;3460;52.028;8.916;2023-06-14T02:38:34;15.20;99.90
6843;DHT22;3460;52.028;8.916;2023-06-14T02:41:02;15.20;99.90
6843;DHT22;3460;52.028;8.916;2023-06-14T02:43:29;15.20;99.90
6843;DHT22;3460;52.028;8.916;2023-06-14T02:45:56;15.10;99.90
6843;DHT22;3460;52.028;8.916;2023-06-14T02:48:23;15.10;99.90
6843;DHT22;3460;52.028;8.916;2023-06-14T02:50:51;15.10;99.90
6843;DHT22;3460;52.028;8.916;2023-06-14T02:53:18;15.20;99.90
6843;DHT22;3460;52.028;8.916;2023-06-14T02:55:45;15.10;99.90
6843;DHT22;3460;52.028;8.916;2023-06-14T02:58:12;15.10;82.70
6843;DHT22;3460;52.028;8.916;2023-06-14T03:00:39;15.10;51.30
6843;DHT22;3460;52.028;8.916;2023-06-14T03:03:06;15.10;11.20
6843;DHT22;3460;52.028;8.916;2023-06-14T03:05:40;15.00;14.30
6843;DHT22;3460;52.028;8.916;2023-06-14T03:08:13;15.00;46.90
6843;DHT22;3460;52.028;8.916;2023-06-14T03:10:42;15.00;28.00
6843;DHT22;3460;52.028;8.916;2023-06-14T03:13:09;14.90;1.00
6843;DHT22;3460;52.028;8.916;2023-06-14T03:15:37;14.80;1.00
6843;DHT22;3460;52.028;8.916;2023-06-14T03:18:07;14.80;1.00
6843;DHT22;3460;52.028;8.916;2023-06-14T03:20:35;14.80;1.00
6843;DHT22;3460;52.028;8.916;2023-06-14T03:23:02;14.70;1.00
6843;DHT22;3460;52.028;8.916;2023-06-14T03:25:32;14.70;1.00
6843;DHT22;3460;52.028;8.916;2023-06-14T03:28:01;14.70;1.00
6843;DHT22;3460;52.028;8.916;2023-06-14T03:30:29;14.60;1.00
6843;DHT22;3460;52.028;8.916;2023-06-14T03:32:59;14.60;1.00
6843;DHT22;3460;52.028;8.916;2023-06-14T03:35:27;14.50;1.00
6843;DHT22;3460;52.028;8.916;2023-06-14T03:37:54;14.40;1.00
6843;DHT22;3460;52.028;8.916;2023-06-14T03:40:21;14.40;1.00
6843;DHT22;3460;52.028;8.916;2023-06-14T03:42:54;14.30;1.00
6843;DHT22;3460;52.028;8.916;2023-06-14T03:45:21;14.30;1.00
6843;DHT22;3460;52.028;8.916;2023-06-14T03:47:48;14.30;1.00
6843;DHT22;3460;52.028;8.916;2023-06-14T03:50:16;14.30;1.00
6843;DHT22;3460;52.028;8.916;2023-06-14T03:52:43;14.30;1.00
6843;DHT22;3460;52.028;8.916;2023-06-14T03:55:10;14.30;1.00
6843;DHT22;3460;52.028;8.916;2023-06-14T03:57:38;14.30;1.00
6843;DHT22;3460;52.028;8.916;2023-06-14T04:00:08;14.20;1.00
6843;DHT22;3460;52.028;8.916;2023-06-14T04:02:36;14.20;1.00
6843;DHT22;3460;52.028;8.916;2023-06-14T04:05:04;14.10;1.00
6843;DHT22;3460;52.028;8.916;2023-06-14T04:07:34;14.30;1.00
6843;DHT22;3460;52.028;8.916;2023-06-14T04:10:06;14.90;1.00
6843;DHT22;3460;52.028;8.916;2023-06-14T04:12:33;15.40;1.00
6843;DHT22;3460;52.028;8.916;2023-06-14T04:14:59;16.00;1.00
6843;DHT22;3460;52.028;8.916;2023-06-14T04:17:28;16.20;99.90
6843;DHT22;3460;52.028;8.916;2023-06-14T04:19:55;16.20;99.90
6843;DHT22;3460;52.028;8.916;2023-06-14T04:22:24;16.20;99.90
6843;DHT22;3460;52.028;8.916;2023-06-14T04:24:54;16.60;99.90
6843;DHT22;3460;52.028;8.916;2023-06-14T04:27:21;16.60;99.90
6843;DHT22;3460;52.028;8.916;2023-06-14T04:29:50;17.00;99.90
6843;DHT22;3460;52.028;8.916;2023-06-14T04:32:23;17.10;99.90
6843;DHT22;3460;52.028;8.916;2023-06-14T04:34:53;17.30;99.90
6843;DHT22;3460;52.028;8.916;2023-06-14T04:37:20;17.50;99.90
6843;DHT22;3460;52.028;8.916;2023-06-14T04:39:47;17.30;99.90
6843;DHT22;3460;52.028;8.916;2023-06-14T04:42:14;17.00;99.90
6843;DHT22;3460;52.028;8.916;2023-06-14T04:44:41;16.90;1.00
6843;DHT22;3460;52.028;8.916;2023-06-14T04:47:09;16.90;99.90
6843;DHT22;3460;52.028;8.916;2023-06-14T04:49:36;16.40;1.00
6843;DHT22;3460;52.028;8.916;2023-06-14T04:52:06;16.40;1.00
6843;DHT22;3460;52.028;8.916;2023-06-14T04:54:35;16.20;1.00
6843;DHT22;3460;52.028;8.916;2023-06-14T04:57:03;16.00;1.00
6843;DHT22;3460;52.028;8.916;2023-06-14T04:59:31;16.10;1.00
6843;DHT22;3460;52.028;8.916;2023-06-14T05:01:59;16.30;1.00
6843;DHT22;3460;52.028;8.916;2023-06-14T05:04:26;16.40;1.00
6843;DHT22;3460;52.028;8.916;2023-06-14T05:06:53;16.50;99.90
6843;DHT22;3460;52.028;8.916;2023-06-14T05:09:22;16.60;1.00
6843;DHT22;3460;52.028;8.916;2023-06-14T05:11:49;16.80;1.00
6843;DHT22;3460;52.028;8.916;2023-06-14T05:14:16;16.80;99.90
6843;DHT22;3460;52.028;8.916;2023-06-14T05:16:43;16.50;99.90
6843;DHT22;3460;52.028;8.916;2023-06-14T05:19:10;16.50;1.00
6843;DHT22;3460;52.028;8.916;2023-06-14T05:21:37;16.60;1.00
6843;DHT22;3460;52.028;8.916;2023-06-14T05:24:04;16.60;1.00
6843;DHT22;3460;52.028;8.916;2023-06-14T05:26:33;16.60;99.90
6843;DHT22;3460;52.028;8.916;2023-06-14T05:29:00;16.60;99.90
6843;DHT22;3460;52.028;8.916;2023-06-14T05:31:28;16.60;99.90
6843;DHT22;3460;52.028;8.916;2023-06-14T05:33:55;16.60;99.90
6843;DHT22;3460;52.028;8.916;2023-06-14T05:36:22;16.40;99.90
6843;DHT22;3460;52.028;8.916;2023-06-14T05:38:49;16.30;1.00
6843;DHT22;3460;52.028;8.916;2023-06-14T05:41:16;16.30;1.00
6843;DHT22;3460;52.028;8.916;2023-06-14T05:43:44;16.20;1.00
6843;DHT22;3460;52.028;8.916;2023-06-14T05:46:11;16.00;1.00
6843;DHT22;3460;52.028;8.916;2023-06-14T05:48:38;16.10;99.90
6843;DHT22;3460;52.028;8.916;2023-06-14T05:51:04;15.80;1.00
6843;DHT22;3460;52.028;8.916;2023-06-14T05:53:34;15.80;1.00
6843;DHT22;3460;52.028;8.916;2023-06-14T05:56:01;15.90;1.00
6843;DHT22;3460;52.028;8.916;2023-06-14T05:58:28;15.90;99.90
6843;DHT22;3460;52.028;8.916;2023-06-14T06:00:56;15.90;99.90
6843;DHT22;3460;52.028;8.916;2023-06-14T06:03:23;15.80;1.00
6843;DHT22;3460;52.028;8.916;2023-06-14T06:05:50;15.60;1.00
6843;DHT22;3460;52.028;8.916;2023-06-14T06:08:17;15.70;1.00
6843;DHT22;3460;52.028;8.916;2023-06-14T06:10:44;15.80;1.00
6843;DHT22;3460;52.028;8.916;2023-06-14T06:13:11;15.70;1.00
6843;DHT22;3460;52.028;8.916;2023-06-14T06:15:37;15.80;99.90
6843;DHT22;3460;52.028;8.916;2023-06-14T06:18:06;15.80;99.90
6843;DHT22;3460;52.028;8.916;2023-06-14T06:20:33;15.80;1.00
6843;DHT22;3460;52.028;8.916;2023-06-14T06:22:59;15.90;99.90
6843;DHT22;3460;52.028;8.916;2023-06-14T06:25:26;15.70;99.90
6843;DHT22;3460;52.028;8.916;2023-06-14T06:27:54;15.80;1.00
6843;DHT22;3460;52.028;8.916;2023-06-14T06:30:21;15.80;99.90
6843;DHT22;3460;52.028;8.916;2023-06-14T06:32:48;15.90;1.00
6843;DHT22;3460;52.028;8.916;2023-06-14T06:35:17;15.90;99.90
6843;DHT22;3460;52.028;8.916;2023-06-14T06:37:44;15.90;99.90
6843;DHT22;3460;52.028;8.916;2023-06-14T06:40:11;15.90;99.90
6843;DHT22;3460;52.028;8.916;2023-06-14T06:42:38;15.80;99.90
6843;DHT22;3460;52.028;8.916;2023-06-14T06:45:05;15.90;1.00
6843;DHT22;3460;52.028;8.916;2023-06-14T06:47:32;16.10;1.00
6843;DHT22;3460;52.028;8.916;2023-06-14T06:49:59;16.20;99.90
6843;DHT22;3460;52.028;8.916;2023-06-14T06:52:27;16.40;99.90
6843;DHT22;3460;52.028;8.916;2023-06-14T06:54:54;16.50;99.90
6843;DHT22;3460;52.028;8.916;2023-06-14T06:57:22;16.70;99.90
6843;DHT22;3460;52.028;8.916;2023-06-14T06:59:49;16.80;99.90
6843;DHT22;3460;52.028;8.916;2023-06-14T07:02:16;16.60;99.90
6843;DHT22;3460;52.028;8.916;2023-06-14T07:04:43;16.60;99.90
6843;DHT22;3460;52.028;8.916;2023-06-14T07:07:10;16.60;99.90
6843;DHT22;3460;52.028;8.916;2023-06-14T07:09:38;16.70;99.90
6843;DHT22;3460;52.028;8.916;2023-06-14T07:12:06;16.60;99.90
6843;DHT22;3460;52.028;8.916;2023-06-14T07:14:33;16.60;99.90
6843;DHT22;3460;52.028;8.916;2023-06-14T07:17:00;16.60;99.90
6843;DHT22;3460;52.028;8.916;2023-06-14T07:19:27;16.80;99.90
6843;DHT22;3460;52.028;8.916;2023-06-14T07:21:53;16.70;99.90
6843;DHT22;3460;52.028;8.916;2023-06-14T07:24:20;16.80;99.90
6843;DHT22;3460;52.028;8.916;2023-06-14T07:26:49;16.90;99.90
6843;DHT22;3460;52.028;8.916;2023-06-14T07:29:15;16.90;99.90
6843;DHT22;3460;52.028;8.916;2023-06-14T07:31:42;17.10;99.90
6843;DHT22;3460;52.028;8.916;2023-06-14T07:34:09;17.10;99.90
6843;DHT22;3460;52.028;8.916;2023-06-14T07:36:36;17.00;99.90
6843;DHT22;3460;52.028;8.916;2023-06-14T07:39:03;17.10;99.90
6843;DHT22;3460;52.028;8.916;2023-06-14T07:41:31;17.20;99.90
6843;DHT22;3460;52.028;8.916;2023-06-14T07:43:59;17.10;99.90
6843;DHT22;3460;52.028;8.916;2023-06-14T07:46:26;17.20;99.90
6843;DHT22;3460;52.028;8.916;2023-06-14T07:48:53;17.40;99.90
6843;DHT22;3460;52.028;8.916;2023-06-14T07:51:20;17.30;99.90
6843;DHT22;3460;52.028;8.916;2023-06-14T07:53:48;17.30;99.90
6843;DHT22;3460;52.028;8.916;2023-06-14T07:56:15;17.40;99.90
6843;DHT22;3460;52.028;8.916;2023-06-14T07:58:42;17.60;99.90
6843;DHT22;3460;52.028;8.916;2023-06-14T08:01:10;17.70;99.90
6843;DHT22;3460;52.028;8.916;2023-06-14T08:03:37;17.90;99.90
6843;DHT22;3460;52.028;8.916;2023-06-14T08:06:04;18.10;99.90
6843;DHT22;3460;52.028;8.916;2023-06-14T08:08:31;18.20;99.90
6843;DHT22;3460;52.028;8.916;2023-06-14T08:10:58;18.20;99.90
6843;DHT22;3460;52.028;8.916;2023-06-14T08:13:25;18.10;99.90
6843;DHT22;3460;52.028;8.916;2023-06-14T08:15:52;18.00;99.90
6843;DHT22;3460;52.028;8.916;2023-06-14T08:18:20;18.00;99.90
6843;DHT22;3460;52.028;8.916;2023-06-14T08:20:47;17.60;99.90
6843;DHT22;3460;52.028;8.916;2023-06-14T08:23:13;17.80;99.90
6843;DHT22;3460;52.028;8.916;2023-06-14T08:25:44;17.70;99.90
6843;DHT22;3460;52.028;8.916;2023-06-14T08:28:11;17.90;99.90
6843;DHT22;3460;52.028;8.916;2023-06-14T08:30:38;18.00;99.90
6843;DHT22;3460;52.028;8.916;2023-06-14T08:33:04;18.20;99.90
6843;DHT22;3460;52.028;8.916;2023-06-14T08:35:33;18.50;99.90
6843;DHT22;3460;52.028;8.916;2023-06-14T08:38:02;18.50;99.90
6843;DHT22;3460;52.028;8.916;2023-06-14T08:40:30;18.60;99.90
6843;DHT22;3460;52.028;8.916;2023-06-14T08:42:57;18.70;99.90
6843;DHT22;3460;52.028;8.916;2023-06-14T08:45:24;18.50;99.90
6843;DHT22;3460;52.028;8.916;2023-06-14T08:47:51;18.70;99.90
6843;DHT22;3460;52.028;8.916;2023-06-14T08:50:23;18.90;99.90
6843;DHT22;3460;52.028;8.916;2023-06-14T08:52:54;18.90;99.90
6843;DHT22;3460;52.028;8.916;2023-06-14T08:55:23;19.10;99.90
6843;DHT22;3460;52.028;8.916;2023-06-14T08:57:53;19.40;99.90
6843;DHT22;3460;52.028;8.916;2023-06-14T09:00:21;19.20;99.90
6843;DHT22;3460;52.028;8.916;2023-06-14T09:02:49;19.00;96.00
6843;DHT22;3460;52.028;8.916;2023-06-14T09:05:22;19.10;99.90
6843;DHT22;3460;52.028;8.916;2023-06-14T09:07:49;19.20;92.10
6843;DHT22;3460;52.028;8.916;2023-06-14T09:10:18;19.40;99.90
6843;DHT22;3460;52.028;8.916;2023-06-14T09:12:45;19.10;99.90
6843;DHT22;3460;52.028;8.916;2023-06-14T09:15:13;19.20;80.20
6843;DHT22;3460;52.028;8.916;2023-06-14T09:17:40;19.30;99.90
6843;DHT22;3460;52.028;8.916;2023-06-14T09:20:08;19.30;71.70
6843;DHT22;3460;52.028;8.916;2023-06-14T09:22:37;19.40;99.50
6843;DHT22;3460;52.028;8.916;2023-06-14T09:25:05;19.30;99.60
6843;DHT22;3460;52.028;8.916;2023-06-14T09:27:33;19.40;99.90
6843;DHT22;3460;52.028;8.916;2023-06-14T09:30:02;19.50;99.90
6843;DHT22;3460;52.028;8.916;2023-06-14T09:32:29;19.70;99.90
6843;DHT22;3460;52.028;8.916;2023-06-14T09:34:56;19.60;40.10
6843;DHT22;3460;52.028;8.916;2023-06-14T09:37:27;19.50;80.70
6843;DHT22;3460;52.028;8.916;2023-06-14T09:39:55;19.70;60.00
6843;DHT22;3460;52.028;8.916;2023-06-14T09:42:22;19.60;99.90
6843;DHT22;3460;52.028;8.916;2023-06-14T09:44:53;19.50;58.10
6843;DHT22;3460;52.028;8.916;2023-06-14T09:47:21;19.50;96.20
6843;DHT22;3460;52.028;8.916;2023-06-14T09:49:48;19.40;62.30
6843;DHT22;3460;52.028;8.916;2023-06-14T09:52:16;19.60;89.30
6843;DHT22;3460;52.028;8.916;2023-06-14T09:54:45;19.60;1.00
6843;DHT22;3460;52.028;8.916;2023-06-14T09:57:14;19.60;87.60
6843;DHT22;3460;52.028;8.916;2023-06-14T09:59:42;19.70;99.90
6843;DHT22;3460;52.028;8.916;2023-06-14T10:02:14;19.70;99.90
6843;DHT22;3460;52.028;8.916;2023-06-14T10:04:53;20.00;99.90
6843;DHT22;3460;52.028;8.916;2023-06-14T10:07:25;20.00;99.90
6843;DHT22;3460;52.028;8.916;2023-06-14T10:09:53;19.80;99.90
6843;DHT22;3460;52.028;8.916;2023-06-14T10:12:20;19.60;99.90
6843;DHT22;3460;52.028;8.916;2023-06-14T10:14:49;19.80;99.90
6843;DHT22;3460;52.028;8.916;2023-06-14T10:17:24;20.10;99.90
6843;DHT22;3460;52.028;8.916;2023-06-14T10:19:56;20.50;99.90
6843;DHT22;3460;52.028;8.916;2023-06-14T10:22:30;20.60;99.90
6843;DHT22;3460;52.028;8.916;2023-06-14T10:24:59;20.90;99.90
6843;DHT22;3460;52.028;8.916;2023-06-14T10:27:26;20.90;99.90
6843;DHT22;3460;52.028;8.916;2023-06-14T10:30:03;20.60;1.00
6843;DHT22;3460;52.028;8.916;2023-06-14T10:32:31;20.40;1.00
6843;DHT22;3460;52.028;8.916;2023-06-14T10:35:00;20.40;1.00
6843;DHT22;3460;52.028;8.916;2023-06-14T10:37:27;20.40;1.00
6843;DHT22;3460;52.028;8.916;2023-06-14T10:39:54;20.40;1.00
6843;DHT22;3460;52.028;8.916;2023-06-14T10:42:21;20.60;1.00
6843;DHT22;3460;52.028;8.916;2023-06-14T10:44:49;20.70;1.00
6843;DHT22;3460;52.028;8.916;2023-06-14T10:47:31;20.90;1.00
6843;DHT22;3460;52.028;8.916;2023-06-14T10:50:03;20.50;99.90
6843;DHT22;3460;52.028;8.916;2023-06-14T10:52:33;20.80;47.50
6843;DHT22;3460;52.028;8.916;2023-06-14T10:55:11;20.80;6.90
6843;DHT22;3460;52.028;8.916;2023-06-14T10:57:41;21.00;99.90
6843;DHT22;3460;52.028;8.916;2023-06-14T11:00:09;20.70;99.90
6843;DHT22;3460;52.028;8.916;2023-06-14T11:03:28;20.90;99.90
6843;DHT22;3460;52.028;8.916;2023-06-14T11:05:58;20.80;99.90
6843;DHT22;3460;52.028;8.916;2023-06-14T11:09:02;21.10;99.90
6843;DHT22;3460;52.028;8.916;2023-06-14T11:11:35;21.10;99.90
6843;DHT22;3460;52.028;8.916;2023-06-14T11:14:04;21.30;99.90
6843;DHT22;3460;52.028;8.916;2023-06-14T11:16:31;21.10;99.90
6843;DHT22;3460;52.028;8.916;2023-06-14T11:19:01;21.00;99.90
6843;DHT22;3460;52.028;8.916;2023-06-14T11:21:32;21.20;99.90
6843;DHT22;3460;52.028;8.916;2023-06-14T11:23:59;21.20;99.90
6843;DHT22;3460;52.028;8.916;2023-06-14T11:26:26;21.40;99.90
6843;DHT22;3460;52.028;8.916;2023-06-14T11:28:56;21.40;99.90
6843;DHT22;3460;52.028;8.916;2023-06-14T11:31:24;21.50;99.90
6843;DHT22;3460;52.028;8.916;2023-06-14T11:33:53;21.60;99.90
6843;DHT22;3460;52.028;8.916;2023-06-14T11:36:25;21.40;99.90
6843;DHT22;3460;52.028;8.916;2023-06-14T11:38:58;21.30;99.90
6843;DHT22;3460;52.028;8.916;2023-06-14T11:41:25;21.50;99.90
6843;DHT22;3460;52.028;8.916;2023-06-14T11:43:53;21.40;99.90
6843;DHT22;3460;52.028;8.916;2023-06-14T11:46:20;21.40;99.90
6843;DHT22;3460;52.028;8.916;2023-06-14T11:48:49;21.50;99.90
6843;DHT22;3460;52.028;8.916;2023-06-14T11:51:16;21.70;99.90
6843;DHT22;3460;52.028;8.916;2023-06-14T11:53:47;21.70;99.90
6843;DHT22;3460;52.028;8.916;2023-06-14T11:56:14;21.70;99.90
6843;DHT22;3460;52.028;8.916;2023-06-14T11:58:43;21.70;99.90
6843;DHT22;3460;52.028;8.916;2023-06-14T12:01:14;21.60;99.90
6843;DHT22;3460;52.028;8.916;2023-06-14T12:03:47;21.60;99.90
6843;DHT22;3460;52.028;8.916;2023-06-14T12:06:15;21.60;99.90
6843;DHT22;3460;52.028;8.916;2023-06-14T12:08:43;21.60;99.90
6843;DHT22;3460;52.028;8.916;2023-06-14T12:11:13;21.50;99.90
6843;DHT22;3460;52.028;8.916;2023-06-14T12:13:41;21.70;99.90
6843;DHT22;3460;52.028;8.916;2023-06-14T12:16:08;21.80;99.90
6843;DHT22;3460;52.028;8.916;2023-06-14T12:18:36;21.90;99.90
6843;DHT22;3460;52.028;8.916;2023-06-14T12:21:04;22.10;99.90
6843;DHT22;3460;52.028;8.916;2023-06-14T12:23:40;22.10;99.90
6843;DHT22;3460;52.028;8.916;2023-06-14T12:26:08;22.10;99.90
6843;DHT22;3460;52.028;8.916;2023-06-14T12:28:37;22.10;99.90
6843;DHT22;3460;52.028;8.916;2023-06-14T12:31:04;22.00;99.90
6843;DHT22;3460;52.028;8.916;2023-06-14T12:33:31;22.00;99.90
6843;DHT22;3460;52.028;8.916;2023-06-14T12:35:58;22.00;99.90
6843;DHT22;3460;52.028;8.916;2023-06-14T12:38:25;21.90;99.90
6843;DHT22;3460;52.028;8.916;2023-06-14T12:40:52;22.00;99.90
6843;DHT22;3460;52.028;8.916;2023-06-14T12:43:19;21.90;99.90
6843;DHT22;3460;52.028;8.916;2023-06-14T12:45:47;21.80;99.90
6843;DHT22;3460;52.028;8.916;2023-06-14T12:48:14;21.90;99.90
6843;DHT22;3460;52.028;8.916;2023-06-14T12:50:41;22.00;99.90
6843;DHT22;3460;52.028;8.916;2023-06-14T12:53:07;21.80;99.90
6843;DHT22;3460;52.028;8.916;2023-06-14T12:55:34;21.70;99.90
6843;DHT22;3460;52.028;8.916;2023-06-14T12:58:01;21.70;99.90
6843;DHT22;3460;52.028;8.916;2023-06-14T13:00:28;21.50;99.90
6843;DHT22;3460;52.028;8.916;2023-06-14T13:02:57;21.50;99.90
6843;DHT22;3460;52.028;8.916;2023-06-14T13:05:24;21.60;99.90
6843;DHT22;3460;52.028;8.916;2023-06-14T13:07:51;21.60;99.90
6843;DHT22;3460;52.028;8.916;2023-06-14T13:10:18;21.80;99.90
6843;DHT22;3460;52.028;8.916;2023-06-14T13:12:45;22.10;99.90
6843;DHT22;3460;52.028;8.916;2023-06-14T13:15:12;22.40;99.90
6843;DHT22;3460;52.028;8.916;2023-06-14T13:17:39;22.70;99.90
6843;DHT22;3460;52.028;8.916;2023-06-14T13:20:08;22.90;99.90
6843;DHT22;3460;52.028;8.916;2023-06-14T13:22:35;22.80;99.90
6843;DHT22;3460;52.028;8.916;2023-06-14T13:25:02;22.90;99.90
6843;DHT22;3460;52.028;8.916;2023-06-14T13:27:30;23.00;99.90
6843;DHT22;3460;52.028;8.916;2023-06-14T13:29:56;22.70;99.90
6843;DHT22;3460;52.028;8.916;2023-06-14T13:32:24;22.60;99.90
6843;DHT22;3460;52.028;8.916;2023-06-14T13:34:50;22.10;99.90
6843;DHT22;3460;52.028;8.916;2023-06-14T13:37:19;22.10;99.90
6843;DHT22;3460;52.028;8.916;2023-06-14T13:39:45;22.10;99.90
6843;DHT22;3460;52.028;8.916;2023-06-14T13:42:12;22.30;99.90
6843;DHT22;3460;52.028;8.916;2023-06-14T13:44:39;22.10;99.90
6843;DHT22;3460;52.028;8.916;2023-06-14T13:47:06;22.10;99.90
6843;DHT22;3460;52.028;8.916;2023-06-14T13:49:33;22.10;99.90
6843;DHT22;3460;52.028;8.916;2023-06-14T13:52:01;22.30;99.90
6843;DHT22;3460;52.028;8.916;2023-06-14T13:54:29;22.60;99.90
6843;DHT22;3460;52.028;8.916;2023-06-14T13:56:56;22.70;99.90
6843;DHT22;3460;52.028;8.916;2023-06-14T13:59:23;22.60;99.90
6843;DHT22;3460;52.028;8.916;2023-06-14T14:01:50;22.70;99.90
6843;DHT22;3460;52.028;8.916;2023-06-14T14:04:16;22.70;99.90
6843;DHT22;3460;52.028;8.916;2023-06-14T14:06:43;22.70;99.90
6843;DHT22;3460;52.028;8.916;2023-06-14T14:09:11;22.60;99.90
6843;DHT22;3460;52.028;8.916;2023-06-14T14:11:39;22.70;99.90
6843;DHT22;3460;52.028;8.916;2023-06-14T14:14:07;22.70;99.90
6843;DHT22;3460;52.028;8.916;2023-06-14T14:16:36;22.70;99.90
6843;DHT22;3460;52.028;8.916;2023-06-14T14:19:03;22.90;99.90
6843;DHT22;3460;52.028;8.916;2023-06-14T14:21:29;22.90;99.90
6843;DHT22;3460;52.028;8.916;2023-06-14T14:23:56;22.90;99.90
6843;DHT22;3460;52.028;8.916;2023-06-14T14:26:23;23.00;99.90
6843;DHT22;3460;52.028;8.916;2023-06-14T14:28:51;23.00;99.90
6843;DHT22;3460;52.028;8.916;2023-06-14T14:31:18;23.00;99.90
6843;DHT22;3460;52.028;8.916;2023-06-14T14:33:45;22.90;99.90
6843;DHT22;3460;52.028;8.916;2023-06-14T14:36:12;22.90;99.90
6843;DHT22;3460;52.028;8.916;2023-06-14T14:38:39;22.80;99.90
6843;DHT22;3460;52.028;8.916;2023-06-14T14:41:06;22.70;99.90
6843;DHT22;3460;52.028;8.916;2023-06-14T14:43:32;22.60;99.90
6843;DHT22;3460;52.028;8.916;2023-06-14T14:46:01;22.70;99.90
6843;DHT22;3460;52.028;8.916;2023-06-14T14:48:27;22.90;99.90
6843;DHT22;3460;52.028;8.916;2023-06-14T14:50:54;23.00;99.90
6843;DHT22;3460;52.028;8.916;2023-06-14T14:53:21;23.00;99.90
6843;DHT22;3460;52.028;8.916;2023-06-14T14:55:49;23.10;99.90
6843;DHT22;3460;52.028;8.916;2023-06-14T14:58:16;23.00;99.90
6843;DHT22;3460;52.028;8.916;2023-06-14T15:00:43;22.80;99.90
6843;DHT22;3460;52.028;8.916;2023-06-14T15:03:12;22.90;99.90
6843;DHT22;3460;52.028;8.916;2023-06-14T15:05:39;22.90;99.90
6843;DHT22;3460;52.028;8.916;2023-06-14T15:08:06;22.80;99.90
6843;DHT22;3460;52.028;8.916;2023-06-14T15:10:37;22.90;99.90
6843;DHT22;3460;52.028;8.916;2023-06-14T15:13:06;23.10;99.90
6843;DHT22;3460;52.028;8.916;2023-06-14T15:15:33;23.10;99.90
6843;DHT22;3460;52.028;8.916;2023-06-14T15:18:00;23.10;99.90
6843;DHT22;3460;52.028;8.916;2023-06-14T15:20:28;23.10;99.90
6843;DHT22;3460;52.028;8.916;2023-06-14T15:22:55;23.20;99.90
6843;DHT22;3460;52.028;8.916;2023-06-14T15:25:25;23.20;99.90
6843;DHT22;3460;52.028;8.916;2023-06-14T15:27:52;23.10;99.90
6843;DHT22;3460;52.028;8.916;2023-06-14T15:30:19;23.10;99.90
6843;DHT22;3460;52.028;8.916;2023-06-14T15:32:45;23.10;99.90
6843;DHT22;3460;52.028;8.916;2023-06-14T15:35:13;23.00;99.90
6843;DHT22;3460;52.028;8.916;2023-06-14T15:37:41;23.00;99.90
6843;DHT22;3460;52.028;8.916;2023-06-14T15:40:09;23.10;99.90
6843;DHT22;3460;52.028;8.916;2023-06-14T15:42:36;23.20;99.90
6843;DHT22;3460;52.028;8.916;2023-06-14T15:45:03;23.10;99.90
6843;DHT22;3460;52.028;8.916;2023-06-14T15:47:30;23.00;99.90
6843;DHT22;3460;52.028;8.916;2023-06-14T15:49:57;23.20;99.90
6843;DHT22;3460;52.028;8.916;2023-06-14T15:52:24;23.10;99.90
6843;DHT22;3460;52.028;8.916;2023-06-14T15:54:52;23.20;99.90
6843;DHT22;3460;52.028;8.916;2023-06-14T15:57:19;23.10;99.90
6843;DHT22;3460;52.028;8.916;2023-06-14T15:59:45;22.90;99.90
6843;DHT22;3460;52.028;8.916;2023-06-14T16:02:12;23.00;99.90
6843;DHT22;3460;52.028;8.916;2023-06-14T16:04:39;23.10;99.90
6843;DHT22;3460;52.028;8.916;2023-06-14T16:07:06;23.10;99.90
6843;DHT22;3460;52.028;8.916;2023-06-14T16:09:33;23.10;99.90
6843;DHT22;3460;52.028;8.916;2023-06-14T16:12:01;23.10;99.90